createdAt,value
2023-05-22T00:00:15.731Z,101372.75
2023-05-22T00:02:44.324Z,101374.41
2023-05-22T00:05:13.294Z,101373.84
2023-05-22T00:07:41.917Z,101371.31
2023-05-22T00:10:10.991Z,101371.16
2023-05-22T00:12:40.695Z,101366.09
2023-05-22T00:15:09.859Z,101364.63
2023-05-22T00:17:38.137Z,101364.56
2023-05-22T00:20:10.734Z,101365.78
2023-05-22T00:22:38.834Z,101363.91
2023-05-22T00:25:08.475Z,101356.25
2023-05-22T00:27:36.490Z,101360.53
2023-05-22T00:30:08.305Z,101353.63
2023-05-22T00:32:37.006Z,101352.63
2023-05-22T00:35:05.591Z,101364.47
2023-05-22T00:37:33.669Z,101360.16
2023-05-22T00:40:01.668Z,101357.63
2023-05-22T00:42:29.757Z,101363.84
2023-05-22T00:44:57.777Z,101364.09
2023-05-22T00:47:27.335Z,101360.69
2023-05-22T00:49:55.797Z,101361.69
2023-05-22T00:52:24.239Z,101353.63
2023-05-22T00:54:55.064Z,101354.84
2023-05-22T00:57:24.613Z,101354.47
2023-05-22T00:59:53.091Z,101357.47
2023-05-22T01:02:21.599Z,101357.97
2023-05-22T01:04:51.028Z,101358.19
2023-05-22T01:07:19.079Z,101354.59
2023-05-22T01:09:47.080Z,101349.63
2023-05-22T01:12:25.765Z,101347.16
2023-05-22T01:15:00.722Z,101343.78
2023-05-22T01:17:38.615Z,101348.22
2023-05-22T01:20:16.403Z,101346.69
2023-05-22T01:23:08.890Z,101347.53
2023-05-22T01:26:03.885Z,101358.53
2023-05-22T01:28:42.970Z,101348.63
2023-05-22T01:31:14.394Z,101348.13
2023-05-22T01:33:46.972Z,101348.03
2023-05-22T01:36:20.133Z,101340.97
2023-05-22T01:38:48.989Z,101337.44
2023-05-22T01:41:17.978Z,101338.66
2023-05-22T01:43:47.179Z,101339.53
2023-05-22T01:46:16.640Z,101336.84
2023-05-22T01:48:44.747Z,101339.69
2023-05-22T01:51:16.506Z,101339.91
2023-05-22T01:53:51.750Z,101338.31
2023-05-22T01:56:30.931Z,101331.38
2023-05-22T01:59:05.559Z,101335.00
2023-05-22T02:01:38.857Z,101329.41
2023-05-22T02:04:07.595Z,101341.22
2023-05-22T02:06:36.015Z,101336.75
2023-05-22T02:09:04.249Z,101332.44
2023-05-22T02:11:35.520Z,101324.44
2023-05-22T02:14:03.916Z,101325.22
2023-05-22T02:16:32.091Z,101328.31
2023-05-22T02:19:06.326Z,101328.97
2023-05-22T02:21:35.265Z,101312.50
2023-05-22T02:24:04.457Z,101323.59
2023-05-22T02:26:32.574Z,101325.84
2023-05-22T02:29:00.716Z,101320.72
2023-05-22T02:31:29.350Z,101318.91
2023-05-22T02:33:57.480Z,101316.31
2023-05-22T02:36:27.409Z,101317.22
2023-05-22T02:38:56.343Z,101313.69
2023-05-22T02:41:24.527Z,101312.19
2023-05-22T02:43:52.566Z,101313.81
2023-05-22T02:46:20.778Z,101313.91
2023-05-22T02:48:48.878Z,101305.13
2023-05-22T02:51:16.883Z,101309.66
2023-05-22T02:53:46.324Z,101302.78
2023-05-22T02:56:14.498Z,101285.44
2023-05-22T02:58:42.615Z,101300.09
2023-05-22T03:01:10.634Z,101303.56
2023-05-22T03:03:38.715Z,101293.94
2023-05-22T03:06:08.920Z,101293.94
2023-05-22T03:08:38.361Z,101296.84
2023-05-22T03:11:07.754Z,101290.69
2023-05-22T03:13:35.829Z,101290.47
2023-05-22T03:16:04.276Z,101285.16
2023-05-22T03:18:32.354Z,101290.91
2023-05-22T03:21:00.657Z,101292.88
2023-05-22T03:23:28.757Z,101282.31
2023-05-22T03:25:56.866Z,101291.19
2023-05-22T03:28:26.242Z,101283.81
2023-05-22T03:30:54.681Z,101287.38
2023-05-22T03:33:22.759Z,101287.50
2023-05-22T03:35:50.937Z,101281.28
2023-05-22T03:38:19.036Z,101284.81
2023-05-22T03:40:47.046Z,101289.31
2023-05-22T03:43:15.074Z,101281.25
2023-05-22T03:45:44.889Z,101288.91
2023-05-22T03:48:12.935Z,101278.16
2023-05-22T03:50:41.450Z,101280.00
2023-05-22T03:53:09.724Z,101281.78
2023-05-22T03:55:37.847Z,101286.72
2023-05-22T03:58:05.933Z,101276.97
2023-05-22T04:00:35.881Z,101281.53
2023-05-22T04:03:05.634Z,101277.88
2023-05-22T04:05:33.737Z,101276.53
2023-05-22T04:08:01.770Z,101284.03
2023-05-22T04:10:29.826Z,101288.34
2023-05-22T04:12:57.932Z,101280.72
2023-05-22T04:15:26.513Z,101284.13
2023-05-22T04:17:55.166Z,101282.38
2023-05-22T04:20:24.754Z,101273.78
2023-05-22T04:22:54.404Z,101275.53
2023-05-22T04:25:22.550Z,101280.56
2023-05-22T04:27:50.646Z,101274.09
2023-05-22T04:30:18.687Z,101278.47
2023-05-22T04:32:46.869Z,101273.16
2023-05-22T04:35:18.538Z,101280.06
2023-05-22T04:37:48.063Z,101271.06
2023-05-22T04:40:16.062Z,101271.22
2023-05-22T04:42:44.834Z,101279.66
2023-05-22T04:45:14.595Z,101266.88
2023-05-22T04:47:42.731Z,101269.13
2023-05-22T04:50:11.907Z,101279.66
2023-05-22T04:52:39.939Z,101270.97
2023-05-22T04:55:12.028Z,101274.19
2023-05-22T04:57:40.518Z,101271.06
2023-05-22T05:00:10.794Z,101277.56
2023-05-22T05:02:38.881Z,101284.31
2023-05-22T05:05:07.166Z,101282.94
2023-05-22T05:07:38.551Z,101277.31
2023-05-22T05:10:07.524Z,101274.91
2023-05-22T05:12:37.278Z,101273.91
2023-05-22T05:15:06.559Z,101279.84
2023-05-22T05:17:34.596Z,101263.63
2023-05-22T05:20:05.109Z,101264.41
2023-05-22T05:22:33.192Z,101269.19
2023-05-22T05:25:01.707Z,101262.44
2023-05-22T05:27:29.790Z,101266.25
2023-05-22T05:29:59.341Z,101265.28
2023-05-22T05:32:27.916Z,101258.44
2023-05-22T05:34:56.364Z,101264.09
2023-05-22T05:37:24.659Z,101262.06
2023-05-22T05:39:52.803Z,101257.06
2023-05-22T05:42:20.977Z,101260.94
2023-05-22T05:44:49.076Z,101250.75
2023-05-22T05:47:18.719Z,101246.47
2023-05-22T05:49:46.819Z,101248.06
2023-05-22T05:52:14.893Z,101243.28
2023-05-22T05:54:46.608Z,101245.44
2023-05-22T05:57:15.621Z,101244.16
2023-05-22T05:59:43.742Z,101253.91
2023-05-22T06:02:11.887Z,101252.38
2023-05-22T06:04:42.654Z,101247.75
2023-05-22T06:07:10.730Z,101249.97
2023-05-22T06:09:38.792Z,101245.69
2023-05-22T06:12:07.421Z,101246.47
2023-05-22T06:14:35.581Z,101246.38
2023-05-22T06:17:03.619Z,101247.41
2023-05-22T06:19:31.701Z,101238.72
2023-05-22T06:22:01.141Z,101243.56
2023-05-22T06:24:29.167Z,101242.44
2023-05-22T06:26:57.178Z,101243.38
2023-05-22T06:29:25.198Z,101245.94
2023-05-22T06:31:53.426Z,101242.97
2023-05-22T06:34:22.794Z,101241.13
2023-05-22T06:36:51.415Z,101242.34
2023-05-22T06:39:20.814Z,101243.41
2023-05-22T06:41:48.850Z,101246.41
2023-05-22T06:44:17.194Z,101247.00
2023-05-22T06:46:45.294Z,101243.06
2023-05-22T06:49:13.335Z,101243.69
2023-05-22T06:51:41.387Z,101242.25
2023-05-22T06:54:12.339Z,101248.16
2023-05-22T06:56:42.028Z,101254.47
2023-05-22T06:59:12.109Z,101254.34
2023-05-22T07:01:40.318Z,101255.19
2023-05-22T07:04:09.157Z,101255.28
2023-05-22T07:06:39.043Z,101248.88
2023-05-22T07:09:07.645Z,101246.16
2023-05-22T07:11:36.623Z,101248.69
2023-05-22T07:14:06.175Z,101242.06
2023-05-22T07:16:34.232Z,101249.13
2023-05-22T07:19:03.432Z,101247.41
2023-05-22T07:21:32.208Z,101244.41
2023-05-22T07:24:02.974Z,101242.81
2023-05-22T07:26:31.247Z,101237.81
2023-05-22T07:28:59.318Z,101231.91
2023-05-22T07:31:28.840Z,101229.88
2023-05-22T07:33:56.957Z,101228.06
2023-05-22T07:36:24.978Z,101232.22
2023-05-22T07:38:52.992Z,101225.72
2023-05-22T07:41:22.012Z,101225.41
2023-05-22T07:43:50.049Z,101224.34
2023-05-22T07:46:18.188Z,101219.47
2023-05-22T07:48:47.746Z,101221.28
2023-05-22T07:51:15.778Z,101220.00
2023-05-22T07:53:43.852Z,101216.31
2023-05-22T07:56:12.001Z,101217.38
2023-05-22T07:58:40.091Z,101212.78
2023-05-22T08:01:09.600Z,101215.28
2023-05-22T08:03:38.053Z,101216.91
2023-05-22T08:06:08.310Z,101204.81
2023-05-22T08:08:36.476Z,101218.00
2023-05-22T08:11:04.979Z,101213.25
2023-05-22T08:13:33.297Z,101208.97
2023-05-22T08:16:01.750Z,101207.19
2023-05-22T08:18:30.308Z,101204.38
2023-05-22T08:21:00.249Z,101201.13
2023-05-22T08:23:30.061Z,101211.53
2023-05-22T08:25:58.080Z,101197.78
2023-05-22T08:28:26.377Z,101200.44
2023-05-22T08:30:55.167Z,101201.97
2023-05-22T08:33:23.432Z,101202.97
2023-05-22T08:35:51.506Z,101201.63
2023-05-22T08:38:19.506Z,101193.72
2023-05-22T08:40:50.603Z,101189.13
2023-05-22T08:43:21.198Z,101186.66
2023-05-22T08:45:56.090Z,101194.38
2023-05-22T08:48:25.716Z,101179.88
2023-05-22T08:50:57.550Z,101189.06
2023-05-22T08:53:29.122Z,101188.28
2023-05-22T08:55:58.510Z,101183.84
2023-05-22T08:58:28.202Z,101181.22
2023-05-22T09:00:57.201Z,101180.88
2023-05-22T09:03:28.635Z,101181.13
2023-05-22T09:05:56.779Z,101175.44
2023-05-22T09:08:25.015Z,101174.75
2023-05-22T09:10:54.992Z,101174.31
2023-05-22T09:13:28.692Z,101174.97
2023-05-22T09:16:00.584Z,101168.28
2023-05-22T09:18:30.481Z,101167.50
2023-05-22T09:20:59.897Z,101171.75
2023-05-22T09:23:29.433Z,101165.66
2023-05-22T09:25:58.485Z,101167.63
2023-05-22T09:28:29.025Z,101173.09
2023-05-22T09:30:57.199Z,101157.94
2023-05-22T09:33:25.543Z,101157.47
2023-05-22T09:35:54.222Z,101149.66
2023-05-22T09:38:24.124Z,101157.72
2023-05-22T09:40:54.545Z,101152.00
2023-05-22T09:43:23.606Z,101152.97
2023-05-22T09:45:57.949Z,101149.00
2023-05-22T09:48:26.622Z,101147.38
2023-05-22T09:50:55.891Z,101150.34
2023-05-22T09:53:29.152Z,101134.63
2023-05-22T09:55:58.243Z,101138.03
2023-05-22T09:58:28.168Z,101132.94
2023-05-22T10:00:58.490Z,101129.84
2023-05-22T10:03:28.030Z,101133.69
2023-05-22T10:05:57.186Z,101132.06
2023-05-22T10:08:28.608Z,101127.47
2023-05-22T10:10:57.882Z,101117.47
2023-05-22T10:13:27.469Z,101118.84
2023-05-22T10:15:58.434Z,101123.72
2023-05-22T10:18:27.898Z,101109.34
2023-05-22T10:20:56.277Z,101116.69
2023-05-22T10:23:25.998Z,101112.16
2023-05-22T10:25:54.817Z,101117.72
2023-05-22T10:28:27.385Z,101110.84
2023-05-22T10:31:03.624Z,101109.59
2023-05-22T10:33:37.724Z,101102.44
2023-05-22T10:36:08.920Z,101092.66
2023-05-22T10:38:57.618Z,101081.28
2023-05-22T10:41:28.735Z,101071.94
2023-05-22T10:43:58.133Z,101082.03
2023-05-22T10:46:27.654Z,101085.66
2023-05-22T10:48:56.385Z,101084.63
2023-05-22T10:51:25.417Z,101083.03
2023-05-22T10:53:55.237Z,101079.16
2023-05-22T10:56:25.279Z,101076.25
2023-05-22T10:58:59.158Z,101077.25
2023-05-22T11:01:28.774Z,101074.00
2023-05-22T11:03:58.599Z,101067.25
2023-05-22T11:06:37.017Z,101076.94
2023-05-22T11:09:30.632Z,101069.19
2023-05-22T11:12:25.649Z,101070.81
2023-05-22T11:14:56.186Z,101063.03
2023-05-22T11:17:27.960Z,101059.56
2023-05-22T11:20:00.812Z,101061.44
2023-05-22T11:22:36.801Z,101049.34
2023-05-22T11:25:08.641Z,101048.59
2023-05-22T11:27:37.545Z,101048.78
2023-05-22T11:30:06.721Z,101048.50
2023-05-22T11:32:39.055Z,101042.84
2023-05-22T11:35:08.596Z,101042.25
2023-05-22T11:37:39.725Z,101045.34
2023-05-22T11:40:09.135Z,101034.63
2023-05-22T11:42:37.878Z,101038.81
2023-05-22T11:45:07.135Z,101042.59
2023-05-22T11:47:35.351Z,101042.88
2023-05-22T11:50:06.854Z,101031.31
2023-05-22T11:52:36.470Z,101026.28
2023-05-22T11:55:06.542Z,101021.38
2023-05-22T11:57:35.294Z,101021.50
2023-05-22T12:00:06.154Z,101023.69
2023-05-22T12:02:34.431Z,101025.00
2023-05-22T12:05:04.320Z,101006.06
2023-05-22T12:07:32.797Z,101002.94
2023-05-22T12:10:01.209Z,101006.63
2023-05-22T12:12:29.489Z,101010.69
2023-05-22T12:14:58.788Z,101003.88
2023-05-22T12:17:29.599Z,101013.03
2023-05-22T12:19:59.153Z,101002.28
2023-05-22T12:22:29.782Z,101008.97
2023-05-22T12:24:57.801Z,101000.63
2023-05-22T12:27:25.882Z,101004.09
2023-05-22T12:29:57.284Z,100994.31
2023-05-22T12:32:25.774Z,100997.44
2023-05-22T12:34:53.900Z,101007.78
2023-05-22T12:37:22.987Z,100993.13
2023-05-22T12:40:00.343Z,100995.19
2023-05-22T12:42:29.541Z,100971.25
2023-05-22T12:45:00.544Z,100977.00
2023-05-22T12:47:28.577Z,100989.50
2023-05-22T12:49:56.675Z,100976.38
2023-05-22T12:52:24.769Z,100983.91
2023-05-22T12:54:52.767Z,100959.22
2023-05-22T12:57:22.229Z,100972.84
2023-05-22T12:59:50.223Z,100961.53
2023-05-22T13:02:18.589Z,100960.56
2023-05-22T13:04:46.630Z,100957.66
2023-05-22T13:07:14.692Z,100951.47
2023-05-22T13:09:42.769Z,100953.72
2023-05-22T13:12:11.230Z,100945.28
2023-05-22T13:14:41.211Z,100949.53
2023-05-22T13:17:09.314Z,100954.13
2023-05-22T13:19:38.106Z,100948.75
2023-05-22T13:22:07.418Z,100941.50
2023-05-22T13:24:35.635Z,100936.59
2023-05-22T13:27:03.705Z,100935.13
2023-05-22T13:29:31.756Z,100939.94
2023-05-22T13:32:01.563Z,100943.72
2023-05-22T13:34:30.194Z,100929.94
2023-05-22T13:36:58.453Z,100935.03
2023-05-22T13:39:26.504Z,100909.13
2023-05-22T13:41:54.651Z,100919.84
2023-05-22T13:44:22.761Z,100913.88
2023-05-22T13:46:50.939Z,100906.97
2023-05-22T13:49:20.428Z,100912.31
2023-05-22T13:51:48.516Z,100915.59
2023-05-22T13:54:16.801Z,100904.41
2023-05-22T13:56:44.949Z,100901.84
2023-05-22T13:59:12.933Z,100900.78
2023-05-22T14:01:41.058Z,100890.97
2023-05-22T14:04:09.191Z,100889.91
2023-05-22T14:06:39.600Z,100885.28
2023-05-22T14:09:09.383Z,100888.94
2023-05-22T14:11:37.597Z,100879.16
2023-05-22T14:14:05.728Z,100881.94
2023-05-22T14:16:33.738Z,100879.34
2023-05-22T14:19:02.088Z,100873.16
2023-05-22T14:21:30.184Z,100870.84
2023-05-22T14:24:00.897Z,100869.88
2023-05-22T14:26:29.014Z,100856.88
2023-05-22T14:28:57.168Z,100858.28
2023-05-22T14:31:25.222Z,100849.66
2023-05-22T14:33:53.357Z,100856.63
2023-05-22T14:36:21.367Z,100857.66
2023-05-22T14:38:49.461Z,100846.34
2023-05-22T14:41:18.854Z,100841.72
2023-05-22T14:43:46.950Z,100836.97
2023-05-22T14:46:15.022Z,100844.00
2023-05-22T14:48:43.086Z,100844.47
2023-05-22T14:51:11.132Z,100838.50
2023-05-22T14:53:39.150Z,100839.09
2023-05-22T14:56:07.425Z,100840.28
2023-05-22T14:58:36.804Z,100839.31
2023-05-22T15:01:05.422Z,100848.56
2023-05-22T15:03:33.476Z,100852.91
2023-05-22T15:06:01.541Z,100852.19
2023-05-22T15:08:29.536Z,100841.13
2023-05-22T15:10:57.610Z,100849.47
2023-05-22T15:13:25.815Z,100844.25
2023-05-22T15:15:55.403Z,100852.75
2023-05-22T15:18:23.433Z,100850.56
2023-05-22T15:20:51.684Z,100837.75
2023-05-22T15:23:19.888Z,100842.59
2023-05-22T15:25:48.378Z,100842.78
2023-05-22T15:28:16.373Z,100840.38
2023-05-22T15:30:44.376Z,100837.34
2023-05-22T15:33:14.011Z,100840.19
2023-05-22T15:35:43.929Z,100849.50
2023-05-22T15:38:13.214Z,100853.34
2023-05-22T15:40:41.843Z,100856.34
2023-05-22T15:43:10.050Z,100850.34
2023-05-22T15:45:38.491Z,100854.91
2023-05-22T15:48:07.865Z,100864.16
2023-05-22T15:50:37.395Z,100875.06
2023-05-22T15:53:06.515Z,100893.88
2023-05-22T15:55:34.825Z,100913.78
2023-05-22T15:58:06.154Z,100917.97
2023-05-22T16:00:38.601Z,100911.38
2023-05-22T16:03:08.464Z,100906.63
2023-05-22T16:05:39.640Z,100921.56
2023-05-22T16:08:10.077Z,100922.34
2023-05-22T16:10:41.352Z,100896.56
2023-05-22T16:13:10.505Z,100926.22
2023-05-22T16:15:39.836Z,100922.44
2023-05-22T16:18:08.897Z,100935.91
2023-05-22T16:20:38.677Z,100927.38
2023-05-22T16:23:06.908Z,100926.59
2023-05-22T16:25:34.891Z,100922.50
2023-05-22T16:28:03.012Z,100916.19
2023-05-22T16:30:31.087Z,100924.00
2023-05-22T16:32:59.288Z,100917.44
2023-05-22T16:35:27.320Z,100916.00
2023-05-22T16:37:56.663Z,100915.69
2023-05-22T16:40:24.714Z,100906.75
2023-05-22T16:42:52.827Z,100903.09
2023-05-22T16:45:20.854Z,100889.88
2023-05-22T16:47:49.040Z,100886.06
2023-05-22T16:50:17.226Z,100874.22
2023-05-22T16:52:45.261Z,100875.53
2023-05-22T16:55:14.766Z,100870.63
2023-05-22T16:57:43.285Z,100871.75
2023-05-22T17:00:12.078Z,100873.47
2023-05-22T17:02:40.537Z,100875.09
2023-05-22T17:05:09.108Z,100879.88
2023-05-22T17:07:37.159Z,100892.53
2023-05-22T17:10:06.380Z,100896.34
2023-05-22T17:12:35.754Z,100897.09
2023-05-22T17:15:03.848Z,100901.00
2023-05-22T17:17:31.911Z,100897.66
2023-05-22T17:20:01.531Z,100893.31
2023-05-22T17:22:29.695Z,100896.66
2023-05-22T17:24:57.784Z,100897.00
2023-05-22T17:27:35.570Z,100898.41
2023-05-22T17:30:07.819Z,100892.97
2023-05-22T17:32:36.250Z,100884.53
2023-05-22T17:35:06.322Z,100891.03
2023-05-22T17:37:34.510Z,100898.84
2023-05-22T17:40:02.555Z,100908.00
2023-05-22T17:42:30.650Z,100903.22
2023-05-22T17:44:58.676Z,100901.00
2023-05-22T17:47:28.145Z,100903.59
2023-05-22T17:49:56.301Z,100909.38
2023-05-22T17:52:24.509Z,100916.34
2023-05-22T17:54:52.992Z,100917.97
2023-05-22T17:57:21.147Z,100916.34
2023-05-22T17:59:49.190Z,100913.63
2023-05-22T18:02:17.247Z,100918.19
2023-05-22T18:04:48.476Z,100929.44
2023-05-22T18:07:17.473Z,100935.75
2023-05-22T18:09:45.584Z,100931.88
2023-05-22T18:12:30.154Z,100926.84
2023-05-22T18:14:59.047Z,100925.09
2023-05-22T18:17:27.394Z,100923.28
2023-05-22T18:19:56.860Z,100916.75
2023-05-22T18:22:25.555Z,100914.09
2023-05-22T18:24:53.675Z,100919.97
2023-05-22T18:27:21.773Z,100913.81
2023-05-22T18:29:50.492Z,100914.94
2023-05-22T18:32:18.828Z,100920.19
2023-05-22T18:34:48.597Z,100916.50
2023-05-22T18:37:18.995Z,100912.34
2023-05-22T18:39:47.129Z,100909.19
2023-05-22T18:42:15.618Z,100895.00
2023-05-22T18:44:43.678Z,100910.47
2023-05-22T18:47:11.793Z,100905.59
2023-05-22T18:49:39.849Z,100915.19
2023-05-22T18:52:08.028Z,100925.50
2023-05-22T18:54:37.371Z,100925.59
2023-05-22T18:57:05.550Z,100933.41
2023-05-22T18:59:33.646Z,100944.16
2023-05-22T19:02:01.722Z,100942.13
2023-05-22T19:04:29.823Z,100951.88
2023-05-22T19:06:59.148Z,100957.78
2023-05-22T19:09:27.234Z,100964.53
2023-05-22T19:11:56.669Z,100968.59
2023-05-22T19:14:24.929Z,100976.72
2023-05-22T19:16:52.939Z,100985.03
2023-05-22T19:19:21.066Z,101002.09
2023-05-22T19:21:49.209Z,101007.00
2023-05-22T19:24:17.287Z,101018.63
2023-05-22T19:26:45.575Z,101038.16
2023-05-22T19:29:15.034Z,101055.53
2023-05-22T19:31:43.200Z,101074.09
2023-05-22T19:34:11.299Z,101084.88
2023-05-22T19:36:39.388Z,101083.84
2023-05-22T19:39:07.466Z,101083.84
2023-05-22T19:41:35.589Z,101076.16
2023-05-22T19:44:03.721Z,101085.91
2023-05-22T19:46:33.225Z,101084.03
2023-05-22T19:49:01.400Z,101083.88
2023-05-22T19:51:29.453Z,101084.56
2023-05-22T19:53:57.457Z,101076.75
2023-05-22T19:56:26.100Z,101076.56
2023-05-22T19:58:54.104Z,101069.09
2023-05-22T20:01:22.257Z,101067.50
2023-05-22T20:03:51.980Z,101065.47
2023-05-22T20:06:20.124Z,101071.91
2023-05-22T20:08:48.182Z,101074.50
2023-05-22T20:11:16.331Z,101067.97
2023-05-22T20:13:44.443Z,101062.09
2023-05-22T20:16:12.828Z,101057.03
2023-05-22T20:18:41.508Z,101062.34
2023-05-22T20:21:11.046Z,101054.03
2023-05-22T20:23:39.895Z,101056.13
2023-05-22T20:26:08.035Z,101052.38
2023-05-22T20:28:36.167Z,101051.31
2023-05-22T20:31:05.045Z,101051.66
2023-05-22T20:33:33.297Z,101056.97
2023-05-22T20:36:02.488Z,101059.47
2023-05-22T20:38:34.766Z,101058.00
2023-05-22T20:41:08.080Z,101058.53
2023-05-22T20:43:37.311Z,101056.63
2023-05-22T20:46:05.504Z,101053.56
2023-05-22T20:48:33.684Z,101058.78
2023-05-22T20:51:01.708Z,101053.31
2023-05-22T20:53:31.075Z,101060.09
2023-05-22T20:55:59.084Z,101056.56
2023-05-22T20:58:27.405Z,101047.66
2023-05-22T21:00:55.993Z,101053.06
2023-05-22T21:03:25.809Z,101047.28
2023-05-22T21:05:54.853Z,101050.34
2023-05-22T21:08:22.904Z,101046.16
2023-05-22T21:10:52.306Z,101048.19
2023-05-22T21:13:20.659Z,101049.06
2023-05-22T21:15:48.703Z,101043.66
2023-05-22T21:18:16.890Z,101037.22
2023-05-22T21:20:45.011Z,101029.28
2023-05-22T21:23:13.256Z,101028.81
2023-05-22T21:25:41.321Z,101035.72
2023-05-22T21:28:10.729Z,101019.69
2023-05-22T21:30:38.939Z,101023.69
2023-05-22T21:33:07.195Z,101024.13
2023-05-22T21:35:35.400Z,101031.69
2023-05-22T21:38:03.457Z,101039.72
2023-05-22T21:40:31.543Z,101023.97
2023-05-22T21:42:59.634Z,101020.72
2023-05-22T21:45:29.212Z,101014.09
2023-05-22T21:47:57.284Z,101010.78
2023-05-22T21:50:25.405Z,101005.22
2023-05-22T21:52:53.451Z,100968.13
2023-05-22T21:55:21.957Z,100997.19
2023-05-22T21:57:49.978Z,100991.78
2023-05-22T22:00:18.972Z,100993.78
2023-05-22T22:02:48.536Z,101001.34
2023-05-22T22:05:18.582Z,100998.47
2023-05-22T22:07:46.698Z,100992.13
2023-05-22T22:10:14.710Z,100990.47
2023-05-22T22:12:42.731Z,100991.97
2023-05-22T22:15:11.472Z,100996.56
2023-05-22T22:17:40.636Z,100982.47
2023-05-22T22:20:11.526Z,100980.81
2023-05-22T22:22:42.267Z,100972.88
2023-05-22T22:25:11.112Z,100975.06
2023-05-22T22:27:39.161Z,100964.28
2023-05-22T22:30:08.644Z,100956.28
2023-05-22T22:32:37.590Z,100963.38
2023-05-22T22:35:06.285Z,100960.69
2023-05-22T22:37:36.351Z,100954.28
2023-05-22T22:40:05.324Z,100956.09
2023-05-22T22:42:33.354Z,100950.00
2023-05-22T22:45:01.378Z,100948.88
2023-05-22T22:47:29.517Z,100938.28
2023-05-22T22:49:57.964Z,100929.00
2023-05-22T22:52:26.056Z,100919.50
2023-05-22T22:54:55.543Z,100919.50
2023-05-22T22:57:23.589Z,100916.81
2023-05-22T22:59:51.540Z,100915.25
2023-05-22T23:02:19.598Z,100908.28
2023-05-22T23:04:47.703Z,100905.66
2023-05-22T23:07:15.744Z,100900.69
2023-05-22T23:09:43.733Z,100901.09
2023-05-22T23:12:13.111Z,100912.75
2023-05-22T23:14:41.121Z,100904.81
2023-05-22T23:17:09.149Z,100913.44
2023-05-22T23:19:37.168Z,100924.22
2023-05-22T23:22:05.389Z,100928.41
2023-05-22T23:24:33.405Z,100924.19
2023-05-22T23:27:01.443Z,100930.97
2023-05-22T23:29:30.844Z,100925.41
2023-05-22T23:31:59.179Z,100921.69
2023-05-22T23:34:27.428Z,100910.84
2023-05-22T23:36:55.460Z,100914.25
2023-05-22T23:39:23.496Z,100915.91
2023-05-22T23:41:54.026Z,100914.09
2023-05-22T23:44:23.611Z,100902.44
2023-05-22T23:46:53.361Z,100902.38
2023-05-22T23:49:21.493Z,100904.19
2023-05-22T23:51:49.521Z,100906.97
2023-05-22T23:54:17.969Z,100907.19
2023-05-22T23:56:46.092Z,100912.66
2023-05-22T23:59:14.352Z,100907.28
